地図

経路データ

SID SEASON NUMBER BASIN SUBBASIN NAME ISO_TIME NATURE LAT LON WMO_WIND WMO_PRES WMO_AGENCY TRACK_TYPE DIST2LAND LANDFALL IFLAG USA_AGENCY USA_ATCF_ID USA_LAT USA_LON USA_RECORD USA_STATUS USA_WIND USA_PRES USA_SSHS USA_R34_NE USA_R34_SE USA_R34_SW USA_R34_NW USA_R50_NE USA_R50_SE USA_R50_SW USA_R50_NW USA_R64_NE USA_R64_SE USA_R64_SW USA_R64_NW USA_POCI USA_ROCI USA_RMW USA_EYE TOKYO_LAT TOKYO_LON TOKYO_GRADE TOKYO_WIND TOKYO_PRES TOKYO_R50_DIR TOKYO_R50_LONG TOKYO_R50_SHORT TOKYO_R30_DIR TOKYO_R30_LONG TOKYO_R30_SHORT TOKYO_LAND CMA_LAT CMA_LON CMA_CAT CMA_WIND CMA_PRES HKO_LAT HKO_LON HKO_CAT HKO_WIND HKO_PRES NEWDELHI_LAT NEWDELHI_LON NEWDELHI_GRADE NEWDELHI_WIND NEWDELHI_PRES NEWDELHI_CI NEWDELHI_DP NEWDELHI_POCI REUNION_LAT REUNION_LON REUNION_TYPE REUNION_WIND REUNION_PRES REUNION_TNUM REUNION_CI REUNION_RMW REUNION_R34_NE REUNION_R34_SE REUNION_R34_SW REUNION_R34_NW REUNION_R50_NE REUNION_R50_SE REUNION_R50_SW REUNION_R50_NW REUNION_R64_NE REUNION_R64_SE REUNION_R64_SW REUNION_R64_NW BOM_LAT BOM_LON BOM_TYPE BOM_WIND BOM_PRES BOM_TNUM BOM_CI BOM_RMW BOM_R34_NE BOM_R34_SE BOM_R34_SW BOM_R34_NW BOM_R50_NE BOM_R50_SE BOM_R50_SW BOM_R50_NW BOM_R64_NE BOM_R64_SE BOM_R64_SW BOM_R64_NW BOM_ROCI BOM_POCI BOM_EYE BOM_POS_METHOD BOM_PRES_METHOD NADI_LAT NADI_LON NADI_CAT NADI_WIND NADI_PRES WELLINGTON_LAT WELLINGTON_LON WELLINGTON_WIND WELLINGTON_PRES DS824_LAT DS824_LON DS824_STAGE DS824_WIND DS824_PRES TD9636_LAT TD9636_LON TD9636_STAGE TD9636_WIND TD9636_PRES TD9635_LAT TD9635_LON TD9635_WIND TD9635_PRES TD9635_ROCI NEUMANN_LAT NEUMANN_LON NEUMANN_CLASS NEUMANN_WIND NEUMANN_PRES MLC_LAT MLC_LON MLC_CLASS MLC_WIND MLC_PRES USA_GUST BOM_GUST BOM_GUST_PER REUNION_GUST REUNION_GUST_PER USA_SEAHGT USA_SEARAD_NE USA_SEARAD_SE USA_SEARAD_SW USA_SEARAD_NW STORM_SPEED STORM_DIR
1951353S09173 1952 96 SP MM NOT_NAMED 1951-12-19 00:00:00 TS -8.80000 173.000 main 945 931 O________OO___ jtwc_sh SH031952 -8.80000 173.000 -1 -8.80000 173.000 TC -8.80000 173.000 4 5 282
1951353S09173 1952 96 SP MM NOT_NAMED 1951-12-19 03:00:00 TS -8.74964 172.752 main 939 918 P________PP___ SH031952 -8.74004 172.740 -1 -8.74004 172.740 TC -8.76883 172.775 4 5 280
1951353S09173 1952 96 SP MM NOT_NAMED 1951-12-19 06:00:00 TS -8.71336 172.517 main 918 904 O________OP___ jtwc_sh SH031952 -8.70000 172.500 -1 -8.70000 172.500 TC -8.74008 172.550 4 4 276
1951353S09173 1952 96 SP MM NOT_NAMED 1951-12-19 09:00:00 TS -8.70041 172.303 main 904 891 P________PP___ SH031952 -8.69248 172.293 -1 -8.69248 172.293 TC -8.71629 172.325 4 4 272
1951353S09173 1952 96 SP MM NOT_NAMED 1951-12-19 12:00:00 TS -8.70000 172.100 main 891 877 O________OO___ jtwc_sh SH031952 -8.70000 172.100 -1 -8.70000 172.100 TC -8.70000 172.100 4 4 270
1951353S09173 1952 96 SP MM NOT_NAMED 1951-12-19 15:00:00 TS -8.69760 171.892 main 877 865 P________PP___ SH031952 -8.69999 171.900 -1 -8.69999 171.900 TC -8.69281 171.877 4 4 270
1951353S09173 1952 96 SP MM NOT_NAMED 1951-12-19 18:00:00 TS -8.69750 171.688 main 865 852 O________OP___ jtwc_sh SH031952 -8.70000 171.700 -1 -8.70000 171.700 TC -8.69251 171.663 4 4 270
1951353S09173 1952 96 SP MM NOT_NAMED 1951-12-19 21:00:00 TS -8.69866 171.479 main 852 840 P________PP___ SH031952 -8.70001 171.485 -1 -8.70001 171.485 TC -8.69595 171.467 4 4 270
1951353S09173 1952 96 SP MM NOT_NAMED 1951-12-20 00:00:00 TS -8.70000 171.300 main 840 834 O________OO___ jtwc_sh SH031952 -8.70000 171.300 -1 -8.70000 171.300 TC -8.70000 171.300 4 3 271
1951353S09173 1952 96 SP MM NOT_NAMED 1951-12-20 03:00:00 TS -8.69454 171.183 main 834 829 P________PP___ SH031952 -8.69998 171.185 -1 -8.69998 171.185 TC -8.68367 171.179 4 2 273
1951353S09173 1952 96 SP MM NOT_NAMED 1951-12-20 06:00:00 TS -8.68997 171.095 main 829 823 O________OP___ jtwc_sh SH031952 -8.70000 171.100 -1 -8.70000 171.100 TC -8.66990 171.085 4 2 275
1951353S09173 1952 96 SP MM NOT_NAMED 1951-12-20 09:00:00 TS -8.68039 171.004 main 823 817 P________PP___ SH031952 -8.68499 171.007 -1 -8.68499 171.007 TC -8.67118 170.998 4 2 267
1951353S09173 1952 96 SP MM NOT_NAMED 1951-12-20 12:00:00 TS -8.70000 170.900 main 817 802 O________OO___ jtwc_sh SH031952 -8.70000 170.900 -1 -8.70000 170.900 TC -8.70000 170.900 4 3 247
1951353S09173 1952 96 SP MM NOT_NAMED 1951-12-20 15:00:00 TS -8.78042 170.761 main 802 781 P________PP___ SH031952 -8.78500 170.758 -1 -8.78500 170.758 TC -8.77125 170.768 4 3 237
1951353S09173 1952 96 SP MM NOT_NAMED 1951-12-20 18:00:00 TS -8.89000 170.608 main 781 766 O________OP___ jtwc_sh SH031952 -8.90000 170.600 -1 -8.90000 170.600 TC -8.86999 170.623 4 4 234
1951353S09173 1952 96 SP MM NOT_NAMED 1951-12-20 21:00:00 TS -8.99457 170.460 main 766 745 P________PP___ SH031952 -8.99998 170.457 -1 -8.99998 170.457 TC -8.98374 170.465 4 4 235
1951353S09173 1952 96 SP MM NOT_NAMED 1951-12-21 00:00:00 TS -9.10000 170.300 main 745 724 O________OO___ jtwc_sh SH031952 -9.10000 170.300 -1 -9.10000 170.300 TC -9.10000 170.300 4 4 240
1951353S09173 1952 96 SP MM NOT_NAMED 1951-12-21 03:00:00 TS -9.19596 170.105 main 724 703 P________PP___ SH031952 -9.20001 170.100 -1 -9.20001 170.100 TC -9.18785 170.116 4 4 244
1951353S09173 1952 96 SP MM NOT_NAMED 1951-12-21 06:00:00 TS -9.29252 169.909 main 703 682 O________OP___ jtwc_sh SH031952 -9.30000 169.900 -1 -9.30000 169.900 TC -9.27756 169.927 4 4 242
1951353S09173 1952 96 SP MM NOT_NAMED 1951-12-21 09:00:00 TS -9.38782 169.740 main 682 667 P________PP___ SH031952 -9.39249 169.735 -1 -9.39249 169.735 TC -9.37848 169.750 4 4 236
1951353S09173 1952 96 SP MM NOT_NAMED 1951-12-21 12:00:00 TS -9.50000 169.600 main 667 652 O________OO___ jtwc_sh SH031952 -9.50000 169.600 -1 -9.50000 169.600 TC -9.50000 169.600 4 4 226
1951353S09173 1952 96 SP MM NOT_NAMED 1951-12-21 15:00:00 TS -9.63301 169.485 main 652 627 P________PP___ SH031952 -9.63500 169.485 -1 -9.63500 169.485 TC -9.62903 169.484 4 4 214
1951353S09173 1952 96 SP MM NOT_NAMED 1951-12-21 18:00:00 TS -9.79416 169.399 main 627 602 O________OP___ jtwc_sh SH031952 -9.80000 169.400 -1 -9.80000 169.400 TC -9.78247 169.398 4 4 203
1951353S09173 1952 96 SP MM NOT_NAMED 1951-12-21 21:00:00 TS -9.97489 169.341 main 602 583 P________PP___ SH031952 -9.97750 169.342 -1 -9.97750 169.342 TC -9.96967 169.337 4 4 193
1951353S09173 1952 96 SP MM NOT_NAMED 1951-12-22 00:00:00 TS -10.2000 169.300 main 583 548 O________OO___ jtwc_sh SH031952 -10.2000 169.300 -1 -10.2000 169.300 TC -10.2000 169.300 4 5 191
1951353S09173 1952 96 SP MM NOT_NAMED 1951-12-22 03:00:00 TS -10.4830 169.241 main 548 519 P________PP___ SH031952 -10.4775 169.235 -1 -10.4775 169.235 TC -10.4940 169.254 4 6 188
1951353S09173 1952 96 SP MM NOT_NAMED 1951-12-22 06:00:00 TS -10.8091 169.211 main 519 491 O________OP___ jtwc_sh SH031952 -10.8000 169.200 -1 -10.8000 169.200 TC -10.8274 169.233 4 7 181
1951353S09173 1952 96 SP MM NOT_NAMED 1951-12-22 09:00:00 TS -11.1624 169.228 main 482 458 P________PP___ SH031952 -11.1575 169.220 -1 -11.1575 169.220 TC -11.1721 169.245 4 7 173
1951353S09173 1952 96 SP MM NOT_NAMED 1951-12-22 12:00:00 TS -11.5000 169.300 main 458 445 O________OO___ jtwc_sh SH031952 -11.5000 169.300 -1 -11.5000 169.300 TC -11.5000 169.300 4 6 162
1951353S09173 1952 96 SP MM NOT_NAMED 1951-12-22 15:00:00 TS -11.7537 169.428 main 436 431 P________PP___ SH031952 -11.7650 169.435 -1 -11.7650 169.435 TC -11.7310 169.415 4 6 149
1951353S09173 1952 96 SP MM NOT_NAMED 1951-12-22 18:00:00 TS -11.9825 169.590 main 431 421 O________OP___ jtwc_sh SH031952 -12.0000 169.600 -1 -12.0000 169.600 TC -11.9476 169.570 4 6 145
1951353S09173 1952 96 SP MM NOT_NAMED 1951-12-22 21:00:00 TS -12.2051 169.752 main 428 412 P________PP___ SH031952 -12.2125 169.758 -1 -12.2125 169.758 TC -12.1904 169.740 4 6 150
1951353S09173 1952 96 SP MM NOT_NAMED 1951-12-23 00:00:00 TS -12.5000 169.900 main 412 391 O________OO___ jtwc_sh SH031952 -12.5000 169.900 -1 -12.5000 169.900 TC -12.5000 169.900 4 8 161
1951353S09173 1952 96 SP MM NOT_NAMED 1951-12-23 03:00:00 TS -12.9619 170.018 main 384 364 P________PP___ SH031952 -12.9625 170.008 -1 -12.9625 170.008 TC -12.9606 170.038 4 10 168
1951353S09173 1952 96 SP MM NOT_NAMED 1951-12-23 06:00:00 TS -13.4950 170.120 main 364 352 O________OP___ jtwc_sh SH031952 -13.5000 170.100 -1 -13.5000 170.100 TC -13.4850 170.160 4 11 169
1951353S09173 1952 96 SP MM NOT_NAMED 1951-12-23 09:00:00 TS -14.0206 170.222 main 352 335 P________PP___ SH031952 -14.0225 170.207 -1 -14.0225 170.207 TC -14.0169 170.251 4 10 170
1951353S09173 1952 96 SP MM NOT_NAMED 1951-12-23 12:00:00 TS -14.5000 170.300 main 335 319 O________OO___ jtwc_sh SH031952 -14.5000 170.300 -1 -14.5000 170.300 TC -14.5000 170.300 4 9 171
1951353S09173 1952 96 SP MM NOT_NAMED 1951-12-23 15:00:00 TS -14.8855 170.368 main 319 304 P________PP___ SH031952 -14.8875 170.387 -1 -14.8875 170.387 TC -14.8817 170.330 4 7 175
1951353S09173 1952 96 SP MM NOT_NAMED 1951-12-23 18:00:00 TS -15.2016 170.371 main 304 282 O________OP___ jtwc_sh SH031952 -15.2000 170.400 -1 -15.2000 170.400 TC -15.2047 170.313 4 6 189
1951353S09173 1952 96 SP MM NOT_NAMED 1951-12-23 21:00:00 TS -15.4734 170.276 main 282 254 P________PP___ SH031952 -15.4725 170.295 -1 -15.4725 170.295 TC -15.4754 170.239 4 6 208
1951353S09173 1952 96 SP MM NOT_NAMED 1951-12-24 00:00:00 TS -15.7000 170.100 main 254 228 O________OO___ jtwc_sh SH031952 -15.7000 170.100 -1 -15.7000 170.100 TC -15.7000 170.100 4 6 221
1951353S09173 1952 96 SP MM NOT_NAMED 1951-12-24 03:00:00 TS -15.9195 169.880 main 228 193 P________PP___ SH031952 -15.9225 169.873 -1 -15.9225 169.873 TC -15.9135 169.894 4 6 230
1951353S09173 1952 96 SP MM NOT_NAMED 1951-12-24 06:00:00 TS -16.0942 169.608 main 193 160 O________OP___ jtwc_sh SH031952 -16.1000 169.600 -1 -16.1000 169.600 TC -16.0826 169.625 4 6 241
1951353S09173 1952 96 SP MM NOT_NAMED 1951-12-24 09:00:00 TS -16.2185 169.311 main 160 128 P________PP___ SH031952 -16.2225 169.307 -1 -16.2225 169.307 TC -16.2104 169.319 4 6 251
1951353S09173 1952 96 SP MM NOT_NAMED 1951-12-24 12:00:00 TS -16.3000 169.000 main 128 96 O________OO___ jtwc_sh SH031952 -16.3000 169.000 -1 -16.3000 169.000 TC -16.3000 169.000 4 6 256
1951353S09173 1952 96 SP MM NOT_NAMED 1951-12-24 15:00:00 TS -16.3676 168.706 main 96 64 P________PP___ SH031952 -16.3650 168.700 -1 -16.3650 168.700 TC -16.3729 168.719 4 6 260
1951353S09173 1952 96 SP MM NOT_NAMED 1951-12-24 18:00:00 TS -16.4032 168.410 main 64 32 O________OP___ jtwc_sh SH031952 -16.4000 168.400 -1 -16.4000 168.400 TC -16.4097 168.430 4 6 265
1951353S09173 1952 96 SP MM NOT_NAMED 1951-12-24 21:00:00 TS -16.4155 168.114 main 32 0 P________PP___ SH031952 -16.4149 168.108 -1 -16.4149 168.108 TC -16.4166 168.126 4 6 270
1951353S09173 1952 96 SP MM NOT_NAMED 1951-12-25 00:00:00 TS -16.4000 167.800 main 0 0 O________OO___ jtwc_sh SH031952 -16.4000 167.800 -1 -16.4000 167.800 TC -16.4000 167.800 4 6 274
1951353S09173 1952 96 SP MM NOT_NAMED 1951-12-25 03:00:00 TS -16.3690 167.452 main 0 0 P________PP___ SH031952 -16.3574 167.465 -1 -16.3574 167.465 TC -16.3921 167.426 4 7 277
1951353S09173 1952 96 SP MM NOT_NAMED 1951-12-25 06:00:00 TS -16.3201 167.078 main 22 22 O________OP___ jtwc_sh SH031952 -16.3000 167.100 -1 -16.3000 167.100 TC -16.3603 167.035 4 8 277
1951353S09173 1952 96 SP MM NOT_NAMED 1951-12-25 09:00:00 TS -16.2762 166.674 main 48 48 P________PP___ SH031952 -16.2651 166.685 -1 -16.2651 166.685 TC -16.2983 166.651 4 8 279
1951353S09173 1952 96 SP MM NOT_NAMED 1951-12-25 12:00:00 TS -16.2000 166.300 main 77 77 O________OO___ jtwc_sh SH031952 -16.2000 166.300 -1 -16.2000 166.300 TC -16.2000 166.300 4 7 289
1951353S09173 1952 96 SP MM NOT_NAMED 1951-12-25 15:00:00 TS -16.0616 166.030 main 96 91 P________PP___ SH031952 -16.0724 166.028 -1 -16.0724 166.028 TC -16.0401 166.034 4 6 303
1951353S09173 1952 96 SP MM NOT_NAMED 1951-12-25 18:00:00 TS -15.8831 165.800 main 102 102 O________OP___ jtwc_sh SH031952 -15.9000 165.800 -1 -15.9000 165.800 TC -15.8493 165.800 4 6 310
1951353S09173 1952 96 SP MM NOT_NAMED 1951-12-25 21:00:00 TS -15.6812 165.565 main 112 112 P________PP___ SH031952 -15.6924 165.565 -1 -15.6924 165.565 TC -15.6589 165.566 4 6 308
1951353S09173 1952 96 SP MM NOT_NAMED 1951-12-26 00:00:00 TS -15.5000 165.300 main 139 139 O________OO___ jtwc_sh SH031952 -15.5000 165.300 -1 -15.5000 165.300 TC -15.5000 165.300 4 7 298
1951353S09173 1952 96 SP MM NOT_NAMED 1951-12-26 03:00:00 TS -15.3779 164.970 main 171 171 P________PP___ SH031952 -15.3700 164.973 -1 -15.3700 164.973 TC -15.3938 164.965 4 7 286
1951353S09173 1952 96 SP MM NOT_NAMED 1951-12-26 06:00:00 TS -15.3083 164.598 main 211 211 O________OP___ jtwc_sh SH031952 -15.3000 164.600 -1 -15.3000 164.600 TC -15.3250 164.595 4 7 277
1951353S09173 1952 96 SP MM NOT_NAMED 1951-12-26 09:00:00 TS -15.2879 164.206 main 253 253 P________PP___ SH031952 -15.2850 164.208 -1 -15.2850 164.208 TC -15.2937 164.202 4 8 271
1951353S09173 1952 96 SP MM NOT_NAMED 1951-12-26 12:00:00 TS -15.3000 163.800 main 295 295 O________OO___ jtwc_sh SH031952 -15.3000 163.800 -1 -15.3000 163.800 TC -15.3000 163.800 4 8 270
1951353S09173 1952 96 SP MM NOT_NAMED 1951-12-26 15:00:00 TS -15.2872 163.396 main 337 337 P________PP___ SH031952 -15.2774 163.400 -1 -15.2774 163.400 TC -15.3066 163.387 4 8 269
1951353S09173 1952 96 SP MM NOT_NAMED 1951-12-26 18:00:00 TS -15.3176 162.990 main 380 380 O________OP___ jtwc_sh SH031952 -15.3000 163.000 -1 -15.3000 163.000 TC -15.3527 162.970 4 8 260
1951353S09173 1952 96 SP MM NOT_NAMED 1951-12-26 21:00:00 TS -15.4241 162.579 main 424 424 P________PP___ SH031952 -15.4125 162.585 -1 -15.4125 162.585 TC -15.4473 162.568 4 8 250
1951353S09173 1952 96 SP MM NOT_NAMED 1951-12-27 00:00:00 TS -15.6000 162.200 main 470 470 O________OO___ jtwc_sh SH031952 -15.6000 162.200 -1 -15.6000 162.200 TC -15.6000 162.200 4 8 240
1951353S09173 1952 96 SP MM NOT_NAMED 1951-12-27 03:00:00 TS -15.8213 161.873 main 505 505 P________PP___ SH031952 -15.8274 161.877 -1 -15.8274 161.877 TC -15.8092 161.865 4 8 230
1951353S09173 1952 96 SP MM NOT_NAMED 1951-12-27 06:00:00 TS -16.0916 161.589 main 529 511 O________OP___ jtwc_sh SH031952 -16.1000 161.600 -1 -16.1000 161.600 TC -16.0748 161.568 4 8 223
1951353S09173 1952 96 SP MM NOT_NAMED 1951-12-27 09:00:00 TS -16.3877 161.327 main 517 503 P________PP___ SH031952 -16.3925 161.335 -1 -16.3925 161.335 TC -16.3780 161.312 4 8 218
1951353S09173 1952 96 SP MM NOT_NAMED 1951-12-27 12:00:00 TS -16.7000 161.100 main 503 491 O________OO___ jtwc_sh SH031952 -16.7000 161.100 -1 -16.7000 161.100 TC -16.7000 161.100 4 7 215
1951353S09173 1952 96 SP MM NOT_NAMED 1951-12-27 15:00:00 TS -16.9971 160.881 main 491 482 P________PP___ SH031952 -16.9925 160.870 -1 -16.9925 160.870 TC -17.0064 160.903 4 7 211
1951353S09173 1952 96 SP MM NOT_NAMED 1951-12-27 18:00:00 TS -17.3091 160.718 main 482 467 O________OP___ jtwc_sh SH031952 -17.3000 160.700 -1 -17.3000 160.700 TC -17.3273 160.753 4 7 201
1951353S09173 1952 96 SP MM NOT_NAMED 1951-12-27 21:00:00 TS -17.6482 160.625 main 468 440 P________PP___ SH031952 -17.6425 160.612 -1 -17.6425 160.612 TC -17.6596 160.650 4 7 189
1951353S09173 1952 96 SP MM NOT_NAMED 1951-12-28 00:00:00 TS -18.0000 160.600 main 440 421 O________OO___ jtwc_sh SH031952 -18.0000 160.600 -1 -18.0000 160.600 TC -18.0000 160.600 4 7 182
1951353S09173 1952 96 SP MM NOT_NAMED 1951-12-28 03:00:00 TS -18.3544 160.622 main 415 389 P________PP___ SH031952 -18.3500 160.635 -1 -18.3500 160.635 TC -18.3631 160.595 4 7 174
1951353S09173 1952 96 SP MM NOT_NAMED 1951-12-28 06:00:00 TS -18.7100 160.680 main 389 370 O________OP___ jtwc_sh SH031952 -18.7000 160.700 -1 -18.7000 160.700 TC -18.7299 160.639 4 7 171
1951353S09173 1952 96 SP MM NOT_NAMED 1951-12-28 09:00:00 TS -19.0706 160.738 main 370 349 P________PP___ SH031952 -19.0650 160.750 -1 -19.0650 160.750 TC -19.0819 160.714 4 7 171
1951353S09173 1952 96 SP MM NOT_NAMED 1951-12-28 12:00:00 TS -19.4000 160.800 main 349 341 O________OO___ jtwc_sh SH031952 -19.4000 160.800 -1 -19.4000 160.800 TC -19.4000 160.800 4 6 170
1951353S09173 1952 96 SP MM NOT_NAMED 1951-12-28 15:00:00 TS -19.6645 160.846 main 341 326 P________PP___ SH031952 -19.6725 160.843 -1 -19.6725 160.843 TC -19.6487 160.852 4 5 169
1951353S09173 1952 96 SP MM NOT_NAMED 1951-12-28 18:00:00 TS -19.8883 160.904 main 326 313 O________OP___ jtwc_sh SH031952 -19.9000 160.900 -1 -19.9000 160.900 TC -19.8649 160.913 4 4 162
1951353S09173 1952 96 SP MM NOT_NAMED 1951-12-28 21:00:00 TS -20.0862 160.988 main 313 302 P________PP___ SH031952 -20.0925 160.985 -1 -20.0925 160.985 TC -20.0736 160.993 4 5 156
1951353S09173 1952 96 SP MM NOT_NAMED 1951-12-29 00:00:00 TS -20.3000 161.100 main 302 292 O________OO___ jtwc_sh SH031952 -20.3000 161.100 -1 -20.3000 161.100 TC -20.3000 161.100 4 6 155
1951353S09173 1952 96 SP MM NOT_NAMED 1951-12-29 03:00:00 TS -20.5882 161.237 main 293 276 P________PP___ SH031952 -20.5850 161.235 -1 -20.5850 161.235 TC -20.5947 161.242 4 7 155
1951353S09173 1952 96 SP MM NOT_NAMED 1951-12-29 06:00:00 TS -20.9025 161.404 main 278 265 O________OP___ jtwc_sh SH031952 -20.9000 161.400 -1 -20.9000 161.400 TC -20.9075 161.412 4 7 152
1951353S09173 1952 96 SP MM NOT_NAMED 1951-12-29 09:00:00 TS -21.2155 161.595 main 269 259 P________PP___ SH031952 -21.2150 161.592 -1 -21.2150 161.592 TC -21.2166 161.601 4 7 148
1951353S09173 1952 96 SP MM NOT_NAMED 1951-12-29 12:00:00 TS -21.5000 161.800 main 264 259 O________OO___ jtwc_sh SH031952 -21.5000 161.800 -1 -21.5000 161.800 TC -21.5000 161.800 4 6 144
1951353S09173 1952 96 SP MM NOT_NAMED 1951-12-29 15:00:00 TS -21.7181 161.992 main 259 258 P________PP___ SH031952 -21.7150 162.000 -1 -21.7150 162.000 TC -21.7245 161.977 4 5 139
1951353S09173 1952 96 SP MM NOT_NAMED 1951-12-29 18:00:00 TS -21.9074 162.188 main 258 252 O________OP___ jtwc_sh SH031952 -21.9000 162.200 -1 -21.9000 162.200 TC -21.9222 162.163 4 5 137
1951353S09173 1952 96 SP MM NOT_NAMED 1951-12-29 21:00:00 TS -22.1029 162.379 main 252 250 P________PP___ SH031952 -22.0999 162.385 -1 -22.0999 162.385 TC -22.1088 162.368 4 5 136
1951353S09173 1952 96 SP MM NOT_NAMED 1951-12-30 00:00:00 TS -22.3000 162.600 main 250 240 O________OO___ jtwc_sh SH031952 -22.3000 162.600 -1 -22.3000 162.600 TC -22.3000 162.600 4 6 130
1951353S09173 1952 96 SP MM NOT_NAMED 1951-12-30 03:00:00 TS -22.4983 162.882 main 240 227 P________PP___ SH031952 -22.4925 162.885 -1 -22.4925 162.885 TC -22.5098 162.875 4 7 127
1951353S09173 1952 96 SP MM NOT_NAMED 1951-12-30 06:00:00 TS -22.7092 163.193 main 227 219 O________OP___ jtwc_sh SH031952 -22.7000 163.200 -1 -22.7000 163.200 TC -22.7277 163.178 4 7 128
1951353S09173 1952 96 SP MM NOT_NAMED 1951-12-30 09:00:00 TS -22.9472 163.497 main 221 221 P________PP___ SH031952 -22.9424 163.500 -1 -22.9424 163.500 TC -22.9567 163.491 4 7 131
1951353S09173 1952 96 SP MM NOT_NAMED 1951-12-30 12:00:00 TS -23.2000 163.800 main 230 225 O________OO___ jtwc_sh SH031952 -23.2000 163.800 -1 -23.2000 163.800 TC -23.2000 163.800 4 7 132
1951353S09173 1952 96 SP MM NOT_NAMED 1951-12-30 15:00:00 TS -23.4512 164.098 main 245 240 P________PP___ SH031952 -23.4425 164.108 -1 -23.4425 164.108 TC -23.4685 164.078 4 7 134
1951353S09173 1952 96 SP MM NOT_NAMED 1951-12-30 18:00:00 TS -23.7165 164.383 main 247 247 O________OP___ jtwc_sh SH031952 -23.7000 164.400 -1 -23.7000 164.400 TC -23.7496 164.350 4 8 138
1951353S09173 1952 96 SP MM NOT_NAMED 1951-12-30 21:00:00 TS -24.0102 164.641 main 261 256 P________PP___ SH031952 -23.9999 164.650 -1 -23.9999 164.650 TC -24.0310 164.622 4 8 141
1951353S09173 1952 96 SP MM NOT_NAMED 1951-12-31 00:00:00 TS -24.3000 164.900 main 270 269 O________OO___ jtwc_sh SH031952 -24.3000 164.900 -1 -24.3000 164.900 TC -24.3000 164.900 4 7 138
1951353S09173 1952 96 SP MM NOT_NAMED 1951-12-31 03:00:00 TS -24.5576 165.183 main 284 280 P________PP___ SH031952 -24.5650 165.193 -1 -24.5650 165.193 TC -24.5429 165.165 4 7 133
1951353S09173 1952 96 SP MM NOT_NAMED 1951-12-31 06:00:00 TS -24.7905 165.480 main 294 294 O________OP___ jtwc_sh SH031952 -24.8000 165.500 -1 -24.8000 165.500 TC -24.7716 165.441 4 7 130
1951353S09173 1952 96 SP MM NOT_NAMED 1951-12-31 09:00:00 TS -25.0014 165.772 main 304 304 P________PP___ SH031952 -25.0073 165.785 -1 -25.0073 165.785 TC -24.9896 165.746 4 7 126
1951353S09173 1952 96 SP MM NOT_NAMED 1951-12-31 12:00:00 TS -25.2000 166.100 main 318 317 O________OO___ jtwc_sh SH031952 -25.2000 166.100 -1 -25.2000 166.100 TC -25.2000 166.100 4 8 122
1951353S09173 1952 96 SP MM NOT_NAMED 1951-12-31 15:00:00 TS -25.3954 166.477 main 335 335 P________PP___ SH031952 -25.3998 166.463 -1 -25.3998 166.463 TC -25.3866 166.506 4 8 118
1951353S09173 1952 96 SP MM NOT_NAMED 1951-12-31 18:00:00 TS -25.5898 166.921 main 357 357 O________OP___ jtwc_sh SH031952 -25.6000 166.900 -1 -25.6000 166.900 TC -25.5695 166.962 4 9 114
1951353S09173 1952 96 SP MM NOT_NAMED 1951-12-31 21:00:00 TS -25.7792 167.434 main 383 383 P________PP___ SH031952 -25.7849 167.420 -1 -25.7849 167.420 TC -25.7676 167.462 4 11 113
1951353S09173 1952 96 SP MM NOT_NAMED 1952-01-01 00:00:00 TS -26.0000 168.000 main 417 417 O________OO___ jtwc_sh SH031952 -26.0000 168.000 -1 -26.0000 168.000 TC -26.0000 168.000 4 11 116
1951353S09173 1952 96 SP MM NOT_NAMED 1952-01-01 03:00:00 TS -26.2839 168.580 main 468 468 P________PP___ SH031952 -26.2773 168.593 -1 -26.2773 168.593 TC -26.2969 168.556 4 12 120
1951353S09173 1952 96 SP MM NOT_NAMED 1952-01-01 06:00:00 TS -26.6090 169.182 main 523 523 O________OP___ jtwc_sh SH031952 -26.6000 169.200 -1 -26.6000 169.200 TC -26.6270 169.147 4 13 122
1951353S09173 1952 96 SP MM NOT_NAMED 1952-01-01 09:00:00 TS -26.9610 169.783 main 591 591 P________PP___ SH031952 -26.9571 169.793 -1 -26.9571 169.793 TC -26.9686 169.765 4 13 122
1951353S09173 1952 96 SP MM NOT_NAMED 1952-01-01 12:00:00 TS -27.3000 170.400 main 651 651 O________OO___ jtwc_sh SH031952 -27.3000 170.400 -1 -27.3000 170.400 TC -27.3000 170.400 4 13 119
1951353S09173 1952 96 SP MM NOT_NAMED 1952-01-01 15:00:00 TS -27.5675 171.033 main 712 712 P________PP___ SH031952 -27.5573 171.043 -1 -27.5573 171.043 TC -27.5879 171.013 4 12 115
1951353S09173 1952 96 SP MM NOT_NAMED 1952-01-01 18:00:00 TS -27.8209 171.681 main 752 714 O________OP___ jtwc_sh SH031952 -27.8000 171.700 -1 -27.8000 171.700 TC -27.8628 171.642 4 13 116
1951353S09173 1952 96 SP MM NOT_NAMED 1952-01-01 21:00:00 TS -28.1100 172.319 main 714 680 P________PP___ SH031952 -28.0994 172.328 -1 -28.0994 172.328 TC -28.1314 172.301 4 13 116
1951353S09173 1952 96 SP MM NOT_NAMED 1952-01-02 00:00:00 TS -28.4000 173.000 main 680 659 O________OO___ jtwc_sh SH031952 -28.4000 173.000 -1 -28.4000 173.000 TC -28.4000 173.000 4 14 113
1951353S09173 1952 96 SP MM NOT_NAMED 1952-01-02 03:00:00 TS -28.6625 173.776 main 651 638 P________PP___ SH031952 -28.6499 173.778 -1 -28.6499 173.778 TC -28.6876 173.773 4 15 111
1951353S09173 1952 96 SP MM NOT_NAMED 1952-01-02 06:00:00 TS -28.9244 174.595 main 642 626 O________OP___ jtwc_sh SH031952 -28.9000 174.600 -1 -28.9000 174.600 TC -28.9731 174.585 4 15 111
1951353S09173 1952 96 SP MM NOT_NAMED 1952-01-02 09:00:00 TS -29.2155 175.411 main 632 625 P________PP___ SH031952 -29.1998 175.415 -1 -29.1998 175.415 TC -29.2469 175.404 4 15 112
1951353S09173 1952 96 SP MM NOT_NAMED 1952-01-02 12:00:00 TS -29.5000 176.200 main 633 633 O________OO___ jtwc_sh SH031952 -29.5000 176.200 -1 -29.5000 176.200 TC -29.5000 176.200 4 14 112
1951353S09173 1952 96 SP MM NOT_NAMED 1952-01-02 15:00:00 TS -29.7568 176.926 main 639 639 P________PP___ SH031952 -29.7719 176.915 -1 -29.7719 176.915 TC -29.7266 176.948 4 13 111
1951353S09173 1952 96 SP MM NOT_NAMED 1952-01-02 18:00:00 TS -29.9771 177.618 main 660 660 O________OP___ jtwc_sh SH031952 -30.0000 177.600 -1 -30.0000 177.600 TC -29.9312 177.654 4 13 108
1951353S09173 1952 96 SP MM NOT_NAMED 1952-01-02 21:00:00 TS -30.1523 178.308 main 678 678 P________PP___ SH031952 -30.1684 178.295 -1 -30.1684 178.295 TC -30.1202 178.333 4 12 105
1951353S09173 1952 96 SP MM NOT_NAMED 1952-01-03 00:00:00 TS -30.3000 179.000 main 709 O________OO___ jtwc_sh SH031952 -30.3000 179.000 -1 -30.3000 179.000 TC -30.3000 179.000 4 12 104

デジタル台風データ・検索

IBTrACS Databaseについて

本データベースは、米国NOAAが公開する1842年以降の世界の熱帯低気圧のベストトラックデータアーカイブInternational Best Track Archive for Climate Stewardship (IBTrACS)を、ウェブで閲覧しやすい形式に変換したものです。

最終更新日:2021-10-08